createdAt,value
2018-12-08T00:01:57.557Z,16.53
2018-12-08T00:04:26.113Z,18.30
2018-12-08T00:06:54.726Z,14.37
2018-12-08T00:09:23.238Z,15.27
2018-12-08T00:11:51.822Z,20.07
2018-12-08T00:14:20.303Z,19.20
2018-12-08T00:16:49.502Z,17.93
2018-12-08T00:19:17.994Z,22.73
2018-12-08T00:22:51.374Z,11.47
2018-12-08T00:25:19.790Z,13.97
2018-12-08T00:27:48.283Z,18.77
2018-12-08T00:30:27.984Z,23.40
2018-12-08T00:32:56.495Z,12.73
2018-12-08T00:35:52.618Z,14.23
2018-12-08T00:38:22.120Z,16.00
2018-12-08T00:40:50.538Z,18.83
2018-12-08T00:43:19.062Z,13.70
2018-12-08T00:45:47.462Z,11.43
2018-12-08T00:48:15.946Z,18.70
2018-12-08T00:50:44.374Z,12.97
2018-12-08T00:53:12.828Z,14.13
2018-12-08T00:55:41.281Z,12.63
2018-12-08T00:58:13.141Z,15.10
2018-12-08T01:00:41.596Z,16.97
2018-12-08T01:03:10.056Z,15.87
2018-12-08T01:05:38.548Z,15.27
2018-12-08T01:08:07.266Z,20.77
2018-12-08T01:10:36.956Z,17.00
2018-12-08T01:13:05.398Z,10.20
2018-12-08T01:15:34.429Z,8.60
2018-12-08T01:18:03.081Z,9.70
2018-12-08T01:20:32.372Z,9.70
2018-12-08T01:23:00.882Z,10.93
2018-12-08T01:25:29.387Z,12.83
2018-12-08T01:27:57.822Z,7.63
2018-12-08T01:30:26.348Z,15.07
2018-12-08T01:32:54.799Z,13.40
2018-12-08T01:35:23.244Z,6.13
2018-12-08T01:37:51.934Z,7.33
2018-12-08T01:40:20.446Z,10.87
2018-12-08T01:43:01.509Z,11.50
2018-12-08T01:45:30.529Z,9.83
2018-12-08T01:47:59.091Z,10.90
2018-12-08T01:50:27.649Z,5.10
2018-12-08T01:52:56.324Z,10.00
2018-12-08T01:55:24.931Z,14.07
2018-12-08T01:57:53.514Z,10.60
2018-12-08T02:00:30.681Z,8.13
2018-12-08T02:02:59.618Z,11.27
2018-12-08T02:05:28.111Z,9.40
2018-12-08T02:07:56.526Z,8.10
2018-12-08T02:10:25.004Z,6.17
2018-12-08T02:12:53.514Z,7.03
2018-12-08T02:15:22.094Z,17.17
2018-12-08T02:17:50.546Z,16.03
2018-12-08T02:20:19.273Z,9.70
2018-12-08T02:22:47.816Z,10.93
2018-12-08T02:25:16.341Z,12.80
2018-12-08T02:27:44.835Z,9.27
2018-12-08T02:30:13.669Z,12.33
2018-12-08T02:32:42.250Z,6.80
2018-12-08T02:35:10.793Z,11.47
2018-12-08T02:37:39.310Z,13.50
2018-12-08T02:40:09.059Z,15.27
2018-12-08T02:42:37.621Z,7.63
2018-12-08T02:45:06.346Z,13.30
2018-12-08T02:47:34.761Z,8.73
2018-12-08T02:50:03.310Z,9.10
2018-12-08T02:52:31.838Z,12.47
2018-12-08T02:55:00.534Z,8.87
2018-12-08T02:57:29.365Z,12.10
2018-12-08T02:59:57.937Z,13.30
2018-12-08T03:02:26.390Z,9.57
2018-12-08T03:05:35.463Z,7.70
2018-12-08T03:08:04.135Z,10.63
2018-12-08T03:10:33.606Z,11.20
2018-12-08T03:13:02.226Z,11.73
2018-12-08T03:15:30.948Z,7.77
2018-12-08T03:17:59.535Z,7.93
2018-12-08T03:20:28.010Z,12.23
2018-12-08T03:22:56.474Z,16.80
2018-12-08T03:25:25.007Z,11.87
2018-12-08T03:27:53.599Z,12.07
2018-12-08T03:30:22.155Z,20.33
2018-12-08T03:32:50.632Z,12.43
2018-12-08T03:35:19.158Z,12.23
2018-12-08T03:37:47.623Z,8.30
2018-12-08T03:40:16.086Z,12.30
2018-12-08T03:42:44.587Z,17.20
2018-12-08T03:45:13.123Z,11.73
2018-12-08T03:47:41.584Z,17.53
2018-12-08T03:50:10.127Z,10.13
2018-12-08T03:52:38.627Z,17.33
2018-12-08T03:55:07.115Z,17.27
2018-12-08T03:57:37.388Z,14.47
2018-12-08T04:00:06.351Z,12.73
2018-12-08T04:02:35.965Z,11.63
2018-12-08T04:05:04.900Z,14.87
2018-12-08T04:07:33.420Z,15.47
2018-12-08T04:10:01.938Z,13.63
2018-12-08T04:12:30.486Z,14.43
2018-12-08T04:14:59.534Z,16.70
2018-12-08T04:17:28.720Z,10.23
2018-12-08T04:19:57.192Z,10.33
2018-12-08T04:22:25.819Z,20.13
2018-12-08T04:24:54.368Z,15.37
2018-12-08T04:27:22.853Z,13.47
2018-12-08T04:29:52.319Z,7.60
2018-12-08T04:32:21.474Z,11.93
2018-12-08T04:34:51.166Z,11.20
2018-12-08T04:37:19.614Z,9.20
2018-12-08T04:39:48.096Z,8.30
2018-12-08T04:42:16.531Z,17.17
2018-12-08T04:44:45.001Z,6.90
2018-12-08T04:47:13.453Z,10.17
2018-12-08T04:49:41.888Z,6.00
2018-12-08T04:52:10.421Z,6.00
2018-12-08T04:54:38.867Z,9.63
2018-12-08T04:57:07.375Z,6.47
2018-12-08T04:59:35.890Z,9.33
2018-12-08T05:02:04.334Z,5.90
2018-12-08T05:04:32.918Z,8.10
2018-12-08T05:07:01.324Z,7.30
2018-12-08T05:09:29.754Z,9.20
2018-12-08T05:11:58.227Z,7.87
2018-12-08T05:14:26.706Z,7.20
2018-12-08T05:16:55.152Z,10.47
2018-12-08T05:19:23.604Z,7.17
2018-12-08T05:21:52.068Z,6.33
2018-12-08T05:24:20.514Z,9.07
2018-12-08T05:26:49.011Z,13.47
2018-12-08T05:29:17.459Z,6.03
2018-12-08T05:31:45.946Z,8.00
2018-12-08T05:34:14.358Z,9.03
2018-12-08T05:36:42.846Z,9.20
2018-12-08T05:39:11.296Z,7.23
2018-12-08T05:41:39.773Z,7.73
2018-12-08T05:44:08.254Z,7.60
2018-12-08T05:46:36.715Z,6.87
2018-12-08T05:49:05.201Z,12.27
2018-12-08T05:51:33.650Z,6.70
2018-12-08T05:54:02.125Z,6.93
2018-12-08T05:56:30.689Z,4.60
2018-12-08T05:58:59.177Z,5.00
2018-12-08T06:01:27.661Z,11.23
2018-12-08T06:03:56.203Z,10.20
2018-12-08T06:06:24.702Z,6.33
2018-12-08T06:08:53.174Z,12.00
2018-12-08T06:11:21.643Z,7.17
2018-12-08T06:13:50.087Z,9.80
2018-12-08T06:16:18.492Z,8.47
2018-12-08T06:18:46.918Z,5.87
2018-12-08T06:21:15.351Z,13.30
2018-12-08T06:23:43.799Z,9.17
2018-12-08T06:26:20.663Z,8.80
2018-12-08T06:28:52.187Z,9.93
2018-12-08T06:31:20.601Z,7.57
2018-12-08T06:33:49.076Z,9.23
2018-12-08T06:36:17.519Z,5.60
2018-12-08T06:38:45.959Z,5.23
2018-12-08T06:41:14.352Z,4.13
2018-12-08T06:43:42.806Z,3.80
2018-12-08T06:46:11.246Z,4.97
2018-12-08T06:48:39.763Z,4.90
2018-12-08T06:51:08.684Z,6.70
2018-12-08T06:53:37.214Z,6.03
2018-12-08T06:56:05.722Z,5.27
2018-12-08T06:58:34.160Z,6.00
2018-12-08T07:01:02.770Z,4.07
2018-12-08T07:03:31.330Z,1.67
2018-12-08T07:05:59.783Z,3.17
2018-12-08T07:08:28.243Z,3.33
2018-12-08T07:10:56.721Z,3.07
2018-12-08T07:13:25.226Z,4.83
2018-12-08T07:15:53.759Z,1.07
2018-12-08T07:18:22.226Z,5.00
2018-12-08T07:20:50.694Z,3.50
2018-12-08T07:23:19.193Z,2.07
2018-12-08T07:25:47.716Z,1.47
2018-12-08T07:28:16.206Z,4.13
2018-12-08T07:30:44.764Z,4.23
2018-12-08T07:33:13.274Z,0.93
2018-12-08T07:35:41.859Z,2.98
2018-12-08T07:38:10.583Z,2.07
2018-12-08T07:40:39.096Z,2.23
2018-12-08T07:43:07.605Z,3.80
2018-12-08T07:45:36.112Z,1.57
2018-12-08T07:48:04.678Z,4.83
2018-12-08T07:50:34.931Z,2.67
2018-12-08T07:53:04.459Z,6.20
2018-12-08T07:55:33.193Z,3.83
2018-12-08T07:58:01.613Z,5.00
2018-12-08T08:00:30.099Z,5.90
2018-12-08T08:02:58.565Z,6.10
2018-12-08T08:05:27.039Z,6.97
2018-12-08T08:07:55.432Z,4.60
2018-12-08T08:10:23.858Z,3.17
2018-12-08T08:12:52.279Z,2.77
2018-12-08T08:15:20.710Z,3.60
2018-12-08T08:17:49.139Z,4.90
2018-12-08T08:20:17.614Z,3.90
2018-12-08T08:22:46.014Z,2.37
2018-12-08T08:25:14.447Z,5.87
2018-12-08T08:27:42.866Z,3.23
2018-12-08T08:30:12.125Z,3.30
2018-12-08T08:32:40.536Z,4.10
2018-12-08T08:35:09.353Z,4.47
2018-12-08T08:37:37.962Z,6.47
2018-12-08T08:40:09.067Z,1.83
2018-12-08T08:42:37.538Z,8.30
2018-12-08T08:45:06.506Z,6.77
2018-12-08T08:47:34.954Z,7.40
2018-12-08T08:50:05.086Z,4.53
2018-12-08T08:52:33.637Z,6.43
2018-12-08T08:55:02.089Z,10.47
2018-12-08T08:57:30.522Z,6.70
2018-12-08T08:59:58.962Z,8.77
2018-12-08T09:02:27.407Z,7.23
2018-12-08T09:04:55.903Z,18.17
2018-12-08T09:07:24.886Z,5.90
2018-12-08T09:09:53.277Z,7.93
2018-12-08T09:12:21.881Z,9.33
2018-12-08T09:14:50.362Z,10.63
2018-12-08T09:17:18.851Z,9.70
2018-12-08T09:19:47.378Z,11.53
2018-12-08T09:22:15.814Z,8.03
2018-12-08T09:24:44.286Z,8.47
2018-12-08T09:27:12.739Z,11.00
2018-12-08T09:29:41.152Z,5.50
2018-12-08T09:32:09.602Z,6.57
2018-12-08T09:34:38.046Z,8.27
2018-12-08T09:37:06.488Z,38.23
2018-12-08T09:39:35.040Z,5.30
2018-12-08T09:42:03.494Z,8.00
2018-12-08T09:44:31.913Z,8.07
2018-12-08T09:47:00.474Z,7.93
2018-12-08T09:49:28.953Z,6.57
2018-12-08T09:51:57.518Z,4.53
2018-12-08T09:54:25.970Z,6.90
2018-12-08T09:56:54.396Z,9.77
2018-12-08T09:59:22.929Z,13.50
2018-12-08T10:01:52.504Z,13.97
2018-12-08T10:04:22.996Z,11.83
2018-12-08T10:06:51.447Z,13.43
2018-12-08T10:09:19.921Z,14.83
2018-12-08T10:11:48.383Z,15.30
2018-12-08T10:14:16.824Z,13.90
2018-12-08T10:16:45.259Z,14.73
2018-12-08T10:19:13.692Z,16.37
2018-12-08T10:21:42.116Z,16.47
2018-12-08T10:24:11.021Z,21.80
2018-12-08T10:26:39.474Z,17.40
2018-12-08T10:29:08.243Z,14.10
2018-12-08T10:31:36.702Z,24.77
2018-12-08T10:34:05.267Z,18.07
2018-12-08T10:36:33.754Z,21.53
2018-12-08T10:39:02.332Z,13.60
2018-12-08T10:41:30.812Z,13.20
2018-12-08T10:43:59.257Z,17.60
2018-12-08T10:46:27.887Z,22.03
2018-12-08T10:48:56.473Z,14.93
2018-12-08T10:51:24.895Z,18.07
2018-12-08T10:53:53.334Z,23.77
2018-12-08T10:56:21.799Z,16.60
2018-12-08T10:58:50.218Z,20.83
2018-12-08T11:01:19.042Z,15.43
2018-12-08T11:03:50.281Z,30.60
2018-12-08T11:06:18.773Z,18.40
2018-12-08T11:08:47.231Z,18.37
2018-12-08T11:11:15.863Z,21.73
2018-12-08T11:13:46.571Z,20.73
2018-12-08T11:16:15.010Z,21.17
2018-12-08T11:18:43.438Z,22.03
2018-12-08T11:21:11.918Z,12.37
2018-12-08T11:23:40.330Z,20.80
2018-12-08T11:26:08.785Z,14.13
2018-12-08T11:28:37.474Z,25.73
2018-12-08T11:31:05.941Z,19.20
2018-12-08T11:33:34.410Z,21.93
2018-12-08T11:36:02.874Z,16.17
2018-12-08T11:38:31.279Z,16.23
2018-12-08T11:40:59.731Z,22.80
2018-12-08T11:43:28.279Z,22.57
2018-12-08T11:45:56.898Z,23.53
2018-12-08T11:48:25.368Z,17.33
2018-12-08T11:50:53.823Z,23.37
2018-12-08T11:53:22.386Z,14.83
2018-12-08T11:55:50.826Z,14.20
2018-12-08T11:58:19.251Z,14.53
2018-12-08T12:00:47.690Z,15.57
2018-12-08T12:03:16.138Z,15.83
2018-12-08T12:05:44.621Z,19.40
2018-12-08T12:08:13.116Z,15.00
2018-12-08T12:10:41.666Z,16.27
2018-12-08T12:13:10.254Z,19.17
2018-12-08T12:15:38.738Z,20.57
2018-12-08T12:18:07.190Z,23.77
2018-12-08T12:21:14.055Z,17.03
2018-12-08T12:23:42.543Z,20.30
2018-12-08T12:26:11.056Z,16.70
2018-12-08T12:28:39.472Z,19.10
2018-12-08T12:31:07.933Z,17.60
2018-12-08T12:33:36.369Z,15.80
2018-12-08T12:36:04.818Z,21.37
2018-12-08T12:38:33.287Z,20.33
2018-12-08T12:41:01.740Z,21.07
2018-12-08T12:43:30.256Z,15.57
2018-12-08T12:45:58.693Z,18.23
2018-12-08T12:48:27.126Z,24.63
2018-12-08T12:50:55.595Z,21.87
2018-12-08T12:53:24.002Z,20.90
2018-12-08T12:55:52.557Z,23.20
2018-12-08T12:58:21.033Z,19.73
2018-12-08T13:00:50.322Z,21.37
2018-12-08T13:03:20.261Z,18.60
2018-12-08T13:05:49.150Z,21.57
2018-12-08T13:08:21.870Z,26.13
2018-12-08T13:10:50.305Z,18.40
2018-12-08T13:13:18.901Z,22.67
2018-12-08T13:15:47.707Z,19.87
2018-12-08T13:18:16.278Z,18.90
2018-12-08T13:20:44.745Z,21.80
2018-12-08T13:23:13.162Z,21.50
2018-12-08T13:25:41.842Z,25.00
2018-12-08T13:28:10.262Z,16.60
2018-12-08T13:30:38.699Z,16.80
2018-12-08T13:33:07.131Z,14.77
2018-12-08T13:35:58.215Z,22.23
2018-12-08T13:38:26.809Z,14.83
2018-12-08T13:40:55.522Z,24.47
2018-12-08T13:43:23.959Z,24.47
2018-12-08T13:45:52.475Z,25.03
2018-12-08T13:48:24.491Z,23.57
2018-12-08T13:50:53.931Z,22.67
2018-12-08T13:53:22.695Z,17.80
2018-12-08T13:55:54.627Z,20.47
2018-12-08T13:58:24.298Z,18.17
2018-12-08T14:00:52.734Z,22.50
2018-12-08T14:03:21.191Z,17.20
2018-12-08T14:08:51.876Z,19.30
2018-12-08T14:11:20.305Z,16.83
2018-12-08T14:13:48.735Z,16.13
2018-12-08T14:16:17.166Z,16.23
2018-12-08T14:18:45.984Z,15.63
2018-12-08T14:21:14.434Z,19.37
2018-12-08T14:23:42.886Z,24.60
2018-12-08T14:26:12.262Z,18.27
2018-12-08T14:28:40.836Z,15.53
2018-12-08T14:31:09.307Z,14.13
2018-12-08T14:33:37.746Z,19.93
2018-12-08T14:36:06.212Z,18.67
2018-12-08T14:38:34.753Z,17.83
2018-12-08T14:41:03.177Z,18.40
2018-12-08T14:43:31.834Z,20.87
2018-12-08T14:46:00.267Z,21.73
2018-12-08T14:48:28.695Z,16.73
2018-12-08T14:50:57.099Z,24.60
2018-12-08T14:53:25.786Z,23.07
2018-12-08T14:55:54.194Z,23.93
2018-12-08T14:58:22.678Z,28.47
2018-12-08T15:00:51.078Z,31.73
2018-12-08T15:03:19.517Z,26.20
2018-12-08T15:05:48.062Z,22.33
2018-12-08T15:08:16.477Z,24.00
2018-12-08T15:10:44.930Z,25.53
2018-12-08T15:13:13.896Z,21.83
2018-12-08T15:15:42.327Z,22.20
2018-12-08T15:18:10.754Z,26.83
2018-12-08T15:20:39.161Z,23.10
2018-12-08T15:23:07.616Z,27.20
2018-12-08T15:25:36.574Z,22.13
2018-12-08T15:28:05.020Z,26.53
2018-12-08T15:30:33.575Z,24.87
2018-12-08T15:33:02.015Z,27.30
2018-12-08T15:35:30.462Z,23.30
2018-12-08T15:37:58.918Z,21.27
2018-12-08T15:40:27.330Z,34.50
2018-12-08T15:42:55.748Z,28.33
2018-12-08T15:45:24.197Z,31.03
2018-12-08T15:47:52.614Z,35.17
2018-12-08T15:50:21.224Z,31.50
2018-12-08T15:52:49.635Z,27.97
2018-12-08T15:55:18.091Z,32.23
2018-12-08T15:57:46.605Z,31.43
2018-12-08T16:00:15.290Z,35.87
2018-12-08T16:02:43.727Z,24.53
2018-12-08T16:05:12.417Z,33.77
2018-12-08T16:07:40.909Z,29.20
2018-12-08T16:10:09.911Z,24.83
2018-12-08T16:12:38.363Z,27.80
2018-12-08T16:15:08.749Z,26.43
2018-12-08T16:17:37.196Z,29.37
2018-12-08T16:20:08.983Z,29.70
2018-12-08T16:22:37.449Z,29.83
2018-12-08T16:25:06.182Z,28.10
2018-12-08T16:27:34.630Z,27.90
2018-12-08T16:30:03.686Z,23.17
2018-12-08T16:32:32.202Z,33.53
2018-12-08T16:35:00.649Z,29.63
2018-12-08T16:37:29.216Z,28.37
2018-12-08T16:39:57.694Z,19.83
2018-12-08T16:42:26.151Z,31.40
2018-12-08T16:44:54.713Z,27.30
2018-12-08T16:47:23.157Z,29.13
2018-12-08T16:49:51.612Z,27.57
2018-12-08T16:52:20.034Z,20.87
2018-12-08T16:54:48.674Z,20.47
2018-12-08T16:57:17.257Z,25.23
2018-12-08T16:59:45.815Z,20.57
2018-12-08T17:02:14.281Z,21.50
2018-12-08T17:04:42.873Z,28.13
2018-12-08T17:07:11.302Z,24.77
2018-12-08T17:09:39.782Z,22.53
2018-12-08T17:12:08.285Z,14.63
2018-12-08T17:14:36.733Z,20.77
2018-12-08T17:17:05.245Z,14.30
2018-12-08T17:19:33.692Z,19.47
2018-12-08T17:22:02.143Z,7.80
2018-12-08T17:24:30.639Z,20.60
2018-12-08T17:26:59.173Z,12.57
2018-12-08T17:29:27.624Z,10.70
2018-12-08T17:31:56.444Z,10.67
2018-12-08T17:34:25.105Z,10.67
2018-12-08T17:36:53.699Z,14.80
2018-12-08T17:39:22.336Z,7.40
2018-12-08T17:41:50.801Z,11.10
2018-12-08T17:44:19.901Z,10.23
2018-12-08T17:46:48.684Z,6.10
2018-12-08T17:49:17.309Z,6.50
2018-12-08T17:51:45.824Z,7.90
2018-12-08T17:54:14.274Z,7.07
2018-12-08T17:56:42.715Z,6.03
2018-12-08T17:59:11.161Z,7.67
2018-12-08T18:01:39.627Z,10.17
2018-12-08T18:04:08.191Z,4.33
2018-12-08T18:06:36.998Z,4.80
2018-12-08T18:09:08.017Z,7.27
2018-12-08T18:11:36.465Z,5.37
2018-12-08T18:14:05.131Z,7.30
2018-12-08T18:16:33.675Z,4.97
2018-12-08T18:19:02.107Z,7.60
2018-12-08T18:21:30.735Z,7.13
2018-12-08T18:23:59.304Z,3.47
2018-12-08T18:26:27.758Z,4.57
2018-12-08T18:28:56.154Z,7.03
2018-12-08T18:31:24.610Z,3.10
2018-12-08T18:33:53.319Z,4.03
2018-12-08T18:36:21.791Z,4.33
2018-12-08T18:38:50.214Z,4.33
2018-12-08T18:41:18.699Z,8.80
2018-12-08T18:43:47.162Z,2.50
2018-12-08T18:46:15.616Z,2.97
2018-12-08T18:48:44.273Z,2.27
2018-12-08T18:51:12.813Z,3.60
2018-12-08T18:53:41.373Z,3.93
2018-12-08T18:56:09.813Z,2.00
2018-12-08T18:58:38.234Z,3.53
2018-12-08T19:01:06.831Z,1.63
2018-12-08T19:03:35.473Z,2.77
2018-12-08T19:06:04.065Z,2.10
2018-12-08T19:08:32.596Z,2.93
2018-12-08T19:11:01.336Z,2.73
2018-12-08T19:13:29.830Z,1.87
2018-12-08T19:15:58.480Z,4.63
2018-12-08T19:18:26.973Z,1.97
2018-12-08T19:20:55.430Z,1.67
2018-12-08T19:23:23.919Z,1.70
2018-12-08T19:25:52.353Z,5.97
2018-12-08T19:28:20.892Z,1.27
2018-12-08T19:30:49.394Z,2.03
2018-12-08T19:33:17.898Z,3.40
2018-12-08T19:35:46.348Z,3.40
2018-12-08T19:38:14.834Z,2.83
2018-12-08T19:40:43.335Z,1.67
2018-12-08T19:43:12.023Z,2.13
2018-12-08T19:45:40.828Z,1.93
2018-12-08T19:48:09.306Z,1.83
2018-12-08T19:50:38.637Z,3.23
2018-12-08T19:53:07.234Z,2.40
2018-12-08T19:55:36.002Z,5.17
2018-12-08T19:58:04.579Z,2.50
2018-12-08T20:00:33.189Z,1.90
2018-12-08T20:03:01.623Z,4.40
2018-12-08T20:05:30.239Z,3.73
2018-12-08T20:07:58.855Z,2.30
2018-12-08T20:10:28.365Z,2.30
2018-12-08T20:12:57.006Z,5.57
2018-12-08T20:15:25.430Z,2.10
2018-12-08T20:17:53.852Z,2.83
2018-12-08T20:20:22.322Z,1.30
2018-12-08T20:22:50.841Z,1.70
2018-12-08T20:25:19.310Z,0.87
2018-12-08T20:27:47.766Z,3.23
2018-12-08T20:30:16.310Z,2.90
2018-12-08T20:32:44.756Z,1.13
2018-12-08T20:35:13.201Z,1.17
2018-12-08T20:37:41.690Z,1.83
2018-12-08T20:40:10.226Z,3.47
2018-12-08T20:42:38.808Z,1.17
2018-12-08T20:45:07.479Z,1.43
2018-12-08T20:47:36.106Z,2.77
2018-12-08T20:50:05.026Z,3.43
2018-12-08T20:52:33.465Z,2.20
2018-12-08T20:55:01.933Z,3.47
2018-12-08T20:57:30.703Z,1.90
2018-12-08T20:59:59.604Z,2.63
2018-12-08T21:02:28.247Z,1.67
2018-12-08T21:04:56.998Z,0.80
2018-12-08T21:07:25.682Z,2.40
2018-12-08T21:09:54.244Z,1.17
2018-12-08T21:12:22.789Z,1.60
2018-12-08T21:14:51.221Z,4.50
2018-12-08T21:17:19.691Z,3.77
2018-12-08T21:19:48.153Z,4.40
2018-12-08T21:22:17.186Z,2.93
2018-12-08T21:24:45.877Z,4.73
2018-12-08T21:27:14.474Z,2.97
2018-12-08T21:29:44.779Z,5.13
2018-12-08T21:32:13.252Z,7.47
2018-12-08T21:34:42.739Z,3.43
2018-12-08T21:37:11.257Z,4.10
2018-12-08T21:42:32.752Z,3.37
2018-12-08T21:45:01.804Z,1.40
2018-12-08T21:47:31.458Z,3.43
2018-12-08T21:49:59.921Z,3.03
2018-12-08T21:52:30.665Z,2.57
2018-12-08T21:54:59.267Z,4.67
2018-12-08T21:57:27.956Z,7.53
2018-12-08T21:59:56.382Z,1.70
2018-12-08T22:02:24.908Z,2.60
2018-12-08T22:04:53.468Z,4.00
2018-12-08T22:07:22.122Z,5.27
2018-12-08T22:09:50.647Z,4.47
2018-12-08T22:12:19.135Z,4.50
2018-12-08T22:14:52.839Z,3.97
2018-12-08T22:17:21.425Z,5.30
2018-12-08T22:19:49.845Z,3.90
2018-12-08T22:22:18.286Z,7.13
2018-12-08T22:24:46.876Z,4.77
2018-12-08T22:27:15.518Z,6.13
2018-12-08T22:29:43.992Z,4.53
2018-12-08T22:32:12.557Z,7.73
2018-12-08T22:34:41.022Z,5.73
2018-12-08T22:37:09.486Z,4.10
2018-12-08T22:39:37.946Z,9.50
2018-12-08T22:42:06.474Z,5.07
2018-12-08T22:44:35.047Z,9.00
2018-12-08T22:47:03.863Z,7.57
2018-12-08T22:49:32.314Z,6.47
2018-12-08T22:52:00.942Z,7.70
2018-12-08T22:54:29.614Z,7.50
2018-12-08T22:56:58.084Z,7.90
2018-12-08T22:59:26.798Z,7.30
2018-12-08T23:01:55.516Z,18.27
2018-12-08T23:04:24.008Z,11.67
2018-12-08T23:07:01.445Z,16.63
2018-12-08T23:09:30.140Z,21.80
2018-12-08T23:11:58.650Z,11.40
2018-12-08T23:14:27.535Z,12.13
2018-12-08T23:16:55.948Z,17.27
2018-12-08T23:19:24.426Z,13.63
2018-12-08T23:21:53.305Z,16.50
2018-12-08T23:24:21.747Z,20.33
2018-12-08T23:26:50.281Z,19.47
2018-12-08T23:29:18.900Z,14.27
2018-12-08T23:31:47.309Z,18.27
2018-12-08T23:34:15.806Z,16.37
2018-12-08T23:36:44.325Z,21.30
2018-12-08T23:39:12.892Z,10.97
2018-12-08T23:41:41.644Z,12.07
2018-12-08T23:44:10.134Z,19.93
2018-12-08T23:46:38.614Z,15.17
2018-12-08T23:49:11.366Z,19.03
2018-12-08T23:51:38.818Z,18.33
2018-12-08T23:54:07.499Z,15.27
2018-12-08T23:56:35.970Z,14.13
2018-12-08T23:59:04.403Z,7.20
